sensor_id;sensor_type;location;lat;lon;timestamp;pressure;altitude;pressure_sealevel;temperature;humidity
44385;BME280;30101;32.778;34.994;2022-07-25T00:01:35;96680.41;;;24.62;78.81
44385;BME280;30101;32.778;34.994;2022-07-25T00:06:40;96676.09;;;24.61;78.65
44385;BME280;30101;32.778;34.994;2022-07-25T00:11:44;96675.63;;;24.59;79.04
44385;BME280;30101;32.778;34.994;2022-07-25T00:16:48;96679.28;;;24.63;78.89
44385;BME280;30101;32.778;34.994;2022-07-25T00:21:52;96677.69;;;24.62;79.30
44385;BME280;30101;32.778;34.994;2022-07-25T00:26:55;96672.56;;;24.61;79.42
44385;BME280;30101;32.778;34.994;2022-07-25T00:31:59;96674.84;;;24.59;79.45
44385;BME280;30101;32.778;34.994;2022-07-25T00:37:03;96681.41;;;24.58;79.26
44385;BME280;30101;32.778;34.994;2022-07-25T00:42:07;96680.13;;;24.55;79.27
44385;BME280;30101;32.778;34.994;2022-07-25T00:47:10;96682.06;;;24.55;79.69
44385;BME280;30101;32.778;34.994;2022-07-25T00:52:14;96684.31;;;24.53;79.73
44385;BME280;30101;32.778;34.994;2022-07-25T00:57:18;96680.00;;;24.52;79.33
44385;BME280;30101;32.778;34.994;2022-07-25T01:02:22;96678.72;;;24.49;79.76
44385;BME280;30101;32.778;34.994;2022-07-25T01:07:26;96677.91;;;24.48;79.62
44385;BME280;30101;32.778;34.994;2022-07-25T01:12:30;96684.50;;;24.47;79.52
44385;BME280;30101;32.778;34.994;2022-07-25T01:17:34;96681.59;;;24.44;79.61
44385;BME280;30101;32.778;34.994;2022-07-25T01:22:37;96677.63;;;24.41;79.70
44385;BME280;30101;32.778;34.994;2022-07-25T01:27:42;96679.53;;;24.41;80.03
44385;BME280;30101;32.778;34.994;2022-07-25T01:32:56;96683.88;;;24.42;79.73
44385;BME280;30101;32.778;34.994;2022-07-25T01:38:00;96688.53;;;24.41;79.70
44385;BME280;30101;32.778;34.994;2022-07-25T01:43:03;96689.66;;;24.40;79.75
44385;BME280;30101;32.778;34.994;2022-07-25T01:48:08;96691.88;;;24.38;80.05
44385;BME280;30101;32.778;34.994;2022-07-25T01:53:11;96696.53;;;24.38;79.96
44385;BME280;30101;32.778;34.994;2022-07-25T01:58:15;96694.94;;;24.37;80.04
44385;BME280;30101;32.778;34.994;2022-07-25T02:03:21;96698.81;;;24.36;80.37
44385;BME280;30101;32.778;34.994;2022-07-25T02:08:24;96694.47;;;24.35;80.15
44385;BME280;30101;32.778;34.994;2022-07-25T02:13:28;96693.69;;;24.34;80.58
44385;BME280;30101;32.778;34.994;2022-07-25T02:18:32;96695.88;;;24.32;80.20
44385;BME280;30101;32.778;34.994;2022-07-25T02:23:36;96695.75;;;24.29;80.50
44385;BME280;30101;32.778;34.994;2022-07-25T02:28:40;96698.00;;;24.27;80.85
44385;BME280;30101;32.778;34.994;2022-07-25T02:33:43;96695.91;;;24.23;80.74
44385;BME280;30101;32.778;34.994;2022-07-25T02:38:47;96697.84;;;24.23;80.66
44385;BME280;30101;32.778;34.994;2022-07-25T02:43:50;96694.31;;;24.22;80.57
44385;BME280;30101;32.778;34.994;2022-07-25T02:48:54;96693.53;;;24.22;80.72
44385;BME280;30101;32.778;34.994;2022-07-25T02:53:59;96690.78;;;24.22;81.13
44385;BME280;30101;32.778;34.994;2022-07-25T02:59:02;96690.31;;;24.20;81.26
44385;BME280;30101;32.778;34.994;2022-07-25T03:04:06;96682.94;;;24.20;81.13
44385;BME280;30101;32.778;34.994;2022-07-25T03:09:10;96682.94;;;24.20;80.75
44385;BME280;30101;32.778;34.994;2022-07-25T03:14:13;96684.03;;;24.19;81.30
44385;BME280;30101;32.778;34.994;2022-07-25T03:19:17;96677.00;;;24.18;81.12
44385;BME280;30101;32.778;34.994;2022-07-25T03:24:21;96681.00;;;24.21;81.00
44385;BME280;30101;32.778;34.994;2022-07-25T03:29:24;96686.59;;;24.25;81.08
44385;BME280;30101;32.778;34.994;2022-07-25T03:34:28;96685.81;;;24.24;81.05
44385;BME280;30101;32.778;34.994;2022-07-25T03:39:32;96697.19;;;24.26;81.07
44385;BME280;30101;32.778;34.994;2022-07-25T03:44:36;96695.28;;;24.27;80.87
44385;BME280;30101;32.778;34.994;2022-07-25T03:49:40;96696.56;;;24.29;81.49
44385;BME280;30101;32.778;34.994;2022-07-25T03:54:44;96705.53;;;24.30;81.09
44385;BME280;30101;32.778;34.994;2022-07-25T03:59:47;96692.06;;;24.33;81.02
44385;BME280;30101;32.778;34.994;2022-07-25T04:04:50;96704.44;;;24.39;81.31
44385;BME280;30101;32.778;34.994;2022-07-25T04:09:54;96706.00;;;24.49;80.81
44385;BME280;30101;32.778;34.994;2022-07-25T04:14:58;96710.16;;;24.55;81.32
44385;BME280;30101;32.778;34.994;2022-07-25T04:20:04;96720.72;;;24.65;80.77
44385;BME280;30101;32.778;34.994;2022-07-25T04:25:09;96719.72;;;24.79;80.61
44385;BME280;30101;32.778;34.994;2022-07-25T04:30:12;96725.41;;;24.94;80.51
44385;BME280;30101;32.778;34.994;2022-07-25T04:35:26;96723.63;;;25.07;80.28
44385;BME280;30101;32.778;34.994;2022-07-25T04:40:30;96729.16;;;25.28;79.82
44385;BME280;30101;32.778;34.994;2022-07-25T04:45:34;96728.97;;;25.33;79.70
44385;BME280;30101;32.778;34.994;2022-07-25T04:50:39;96734.50;;;25.45;79.64
44385;BME280;30101;32.778;34.994;2022-07-25T04:55:43;96733.78;;;25.57;79.39
44385;BME280;30101;32.778;34.994;2022-07-25T05:00:46;96733.47;;;25.59;79.06
44385;BME280;30101;32.778;34.994;2022-07-25T05:05:50;96731.19;;;25.61;78.99
44385;BME280;30101;32.778;34.994;2022-07-25T05:10:54;96731.53;;;25.59;79.05
44385;BME280;30101;32.778;34.994;2022-07-25T05:15:58;96723.59;;;25.66;78.68
44385;BME280;30101;32.778;34.994;2022-07-25T05:21:02;96740.16;;;25.91;78.45
44385;BME280;30101;32.778;34.994;2022-07-25T05:26:06;96735.47;;;26.12;77.99
44385;BME280;30101;32.778;34.994;2022-07-25T05:31:10;96726.50;;;26.24;77.41
44385;BME280;30101;32.778;34.994;2022-07-25T05:36:14;96739.75;;;26.55;77.05
44385;BME280;30101;32.778;34.994;2022-07-25T05:41:18;96735.72;;;27.47;74.95
44385;BME280;30101;32.778;34.994;2022-07-25T05:46:21;96733.03;;;28.27;72.79
44385;BME280;30101;32.778;34.994;2022-07-25T05:51:27;96744.28;;;28.94;70.66
44385;BME280;30101;32.778;34.994;2022-07-25T05:56:37;96734.81;;;28.63;71.17
44385;BME280;30101;32.778;34.994;2022-07-25T06:01:41;96740.81;;;28.53;70.93
44385;BME280;30101;32.778;34.994;2022-07-25T06:06:45;96741.94;;;28.80;69.26
44385;BME280;30101;32.778;34.994;2022-07-25T06:11:49;96747.88;;;28.66;69.63
44385;BME280;30101;32.778;34.994;2022-07-25T06:17:02;96738.78;;;28.50;69.77
44385;BME280;30101;32.778;34.994;2022-07-25T06:22:06;96745.00;;;28.63;69.26
44385;BME280;30101;32.778;34.994;2022-07-25T06:27:09;96757.94;;;28.62;68.72
44385;BME280;30101;32.778;34.994;2022-07-25T06:32:13;96754.41;;;28.77;67.83
44385;BME280;30101;32.778;34.994;2022-07-25T06:37:17;96752.44;;;30.08;64.97
44385;BME280;30101;32.778;34.994;2022-07-25T06:42:20;96757.91;;;33.63;56.40
44385;BME280;30101;32.778;34.994;2022-07-25T06:47:24;96764.63;;;34.35;54.13
44385;BME280;30101;32.778;34.994;2022-07-25T06:52:28;96764.81;;;36.06;51.02
44385;BME280;30101;32.778;34.994;2022-07-25T06:57:32;96761.13;;;36.41;50.54
44385;BME280;30101;32.778;34.994;2022-07-25T07:02:52;96764.06;;;35.74;52.86
44385;BME280;30101;32.778;34.994;2022-07-25T07:07:57;96752.47;;;36.18;51.99
44385;BME280;30101;32.778;34.994;2022-07-25T07:13:07;96744.22;;;36.81;50.32
44385;BME280;30101;32.778;34.994;2022-07-25T07:18:11;96763.69;;;36.84;49.67
44385;BME280;30101;32.778;34.994;2022-07-25T07:23:15;96765.13;;;36.40;50.07
44385;BME280;30101;32.778;34.994;2022-07-25T07:28:21;96748.97;;;36.84;48.73
44385;BME280;30101;32.778;34.994;2022-07-25T07:33:25;96755.50;;;37.22;47.74
44385;BME280;30101;32.778;34.994;2022-07-25T07:38:30;96760.28;;;37.18;47.59
44385;BME280;30101;32.778;34.994;2022-07-25T07:43:34;96755.94;;;37.13;47.55
44385;BME280;30101;32.778;34.994;2022-07-25T07:48:38;96767.91;;;37.07;48.13
44385;BME280;30101;32.778;34.994;2022-07-25T07:53:42;96763.56;;;36.18;49.92
44385;BME280;30101;32.778;34.994;2022-07-25T07:58:46;96757.34;;;35.50;51.30
44385;BME280;30101;32.778;34.994;2022-07-25T08:03:50;96757.66;;;34.87;51.48
44385;BME280;30101;32.778;34.994;2022-07-25T08:08:54;96756.41;;;34.53;52.42
44385;BME280;30101;32.778;34.994;2022-07-25T08:13:57;96749.13;;;34.23;51.93
44385;BME280;30101;32.778;34.994;2022-07-25T08:19:00;96751.31;;;33.86;53.03
44385;BME280;30101;32.778;34.994;2022-07-25T08:24:04;96744.09;;;33.70;52.57
44385;BME280;30101;32.778;34.994;2022-07-25T08:29:09;96739.69;;;33.59;52.70
44385;BME280;30101;32.778;34.994;2022-07-25T08:34:22;96760.19;;;33.54;52.83
44385;BME280;30101;32.778;34.994;2022-07-25T08:39:25;96762.19;;;33.53;52.77
44385;BME280;30101;32.778;34.994;2022-07-25T08:44:32;96761.78;;;33.51;52.45
44385;BME280;30101;32.778;34.994;2022-07-25T08:49:36;96756.19;;;33.48;52.44
44385;BME280;30101;32.778;34.994;2022-07-25T08:54:40;96757.91;;;33.15;53.01
44385;BME280;30101;32.778;34.994;2022-07-25T08:59:44;96744.69;;;32.98;53.04
44385;BME280;30101;32.778;34.994;2022-07-25T09:04:48;96736.28;;;32.87;53.20
44385;BME280;30101;32.778;34.994;2022-07-25T09:09:51;96754.91;;;32.90;52.88
44385;BME280;30101;32.778;34.994;2022-07-25T09:14:55;96740.69;;;32.92;52.79
44385;BME280;30101;32.778;34.994;2022-07-25T09:19:58;96749.34;;;32.87;52.97
44385;BME280;30101;32.778;34.994;2022-07-25T09:25:04;96748.69;;;32.63;52.92
44385;BME280;30101;32.778;34.994;2022-07-25T09:30:13;96757.25;;;32.51;52.71
44385;BME280;30101;32.778;34.994;2022-07-25T09:35:16;96749.25;;;32.12;53.34
44385;BME280;30101;32.778;34.994;2022-07-25T09:40:20;96753.75;;;31.94;53.33
44385;BME280;30101;32.778;34.994;2022-07-25T09:45:23;96748.47;;;31.82;54.08
44385;BME280;30101;32.778;34.994;2022-07-25T09:50:33;96746.22;;;31.64;54.23
44385;BME280;30101;32.778;34.994;2022-07-25T09:55:37;96739.75;;;31.80;53.91
44385;BME280;30101;32.778;34.994;2022-07-25T10:00:43;96736.66;;;31.85;53.80
44385;BME280;30101;32.778;34.994;2022-07-25T10:11:26;96726.72;;;31.80;53.79
44385;BME280;30101;32.778;34.994;2022-07-25T10:16:29;96719.13;;;31.74;53.98
44385;BME280;30101;32.778;34.994;2022-07-25T10:21:33;96727.75;;;31.68;54.52
44385;BME280;30101;32.778;34.994;2022-07-25T10:26:38;96712.44;;;31.75;53.97
44385;BME280;30101;32.778;34.994;2022-07-25T10:31:43;96719.78;;;31.63;53.92
44385;BME280;30101;32.778;34.994;2022-07-25T10:36:53;96712.63;;;31.59;53.65
44385;BME280;30101;32.778;34.994;2022-07-25T10:41:59;96721.38;;;31.38;53.85
44385;BME280;30101;32.778;34.994;2022-07-25T10:47:10;96712.22;;;31.30;54.26
44385;BME280;30101;32.778;34.994;2022-07-25T10:52:16;96712.88;;;31.24;54.13
44385;BME280;30101;32.778;34.994;2022-07-25T10:57:20;96698.41;;;31.07;54.46
44385;BME280;30101;32.778;34.994;2022-07-25T11:02:23;96702.53;;;30.94;54.97
44385;BME280;30101;32.778;34.994;2022-07-25T11:07:27;96703.53;;;30.82;55.40
44385;BME280;30101;32.778;34.994;2022-07-25T11:12:31;96712.59;;;30.83;55.59
44385;BME280;30101;32.778;34.994;2022-07-25T11:17:36;96709.91;;;30.86;55.70
44385;BME280;30101;32.778;34.994;2022-07-25T11:22:50;96705.59;;;30.89;54.83
44385;BME280;30101;32.778;34.994;2022-07-25T11:27:55;96700.34;;;30.80;55.24
44385;BME280;30101;32.778;34.994;2022-07-25T11:32:59;96704.63;;;30.78;55.32
44385;BME280;30101;32.778;34.994;2022-07-25T11:38:03;96692.31;;;30.72;55.40
44385;BME280;30101;32.778;34.994;2022-07-25T11:43:18;96702.97;;;30.73;55.47
44385;BME280;30101;32.778;34.994;2022-07-25T11:48:29;96698.09;;;30.67;55.65
44385;BME280;30101;32.778;34.994;2022-07-25T11:53:41;96699.13;;;30.58;55.88
44385;BME280;30101;32.778;34.994;2022-07-25T11:58:59;96697.22;;;30.40;56.16
44385;BME280;30101;32.778;34.994;2022-07-25T12:04:18;96696.28;;;30.32;56.96
44385;BME280;30101;32.778;34.994;2022-07-25T12:09:27;96689.34;;;30.19;57.54
44385;BME280;30101;32.778;34.994;2022-07-25T12:14:41;96680.84;;;30.08;57.61
44385;BME280;30101;32.778;34.994;2022-07-25T12:19:46;96682.25;;;29.98;57.89
44385;BME280;30101;32.778;34.994;2022-07-25T12:24:49;96688.81;;;29.94;58.03
44385;BME280;30101;32.778;34.994;2022-07-25T12:29:52;96680.75;;;29.85;57.54
44385;BME280;30101;32.778;34.994;2022-07-25T12:34:56;96678.59;;;29.75;58.59
44385;BME280;30101;32.778;34.994;2022-07-25T12:40:00;96670.34;;;29.75;58.41
44385;BME280;30101;32.778;34.994;2022-07-25T12:45:05;96670.53;;;29.66;58.47
44385;BME280;30101;32.778;34.994;2022-07-25T12:50:09;96667.00;;;29.66;59.21
44385;BME280;30101;32.778;34.994;2022-07-25T12:55:15;96675.19;;;29.62;59.33
44385;BME280;30101;32.778;34.994;2022-07-25T13:00:21;96671.13;;;29.56;59.16
44385;BME280;30101;32.778;34.994;2022-07-25T13:05:25;96679.91;;;29.46;59.12
44385;BME280;30101;32.778;34.994;2022-07-25T13:10:28;96672.13;;;29.32;59.24
44385;BME280;30101;32.778;34.994;2022-07-25T13:15:32;96673.47;;;29.22;59.70
44385;BME280;30101;32.778;34.994;2022-07-25T13:20:36;96669.22;;;29.25;60.22
44385;BME280;30101;32.778;34.994;2022-07-25T13:25:40;96676.31;;;29.26;59.85
44385;BME280;30101;32.778;34.994;2022-07-25T13:30:43;96669.13;;;29.21;60.11
44385;BME280;30101;32.778;34.994;2022-07-25T13:35:47;96670.66;;;29.19;60.81
44385;BME280;30101;32.778;34.994;2022-07-25T13:40:51;96666.44;;;29.06;60.91
44385;BME280;30101;32.778;34.994;2022-07-25T13:46:00;96672.63;;;29.02;61.18
44385;BME280;30101;32.778;34.994;2022-07-25T13:51:05;96671.47;;;29.03;61.09
44385;BME280;30101;32.778;34.994;2022-07-25T13:56:14;96663.84;;;28.97;61.07
44385;BME280;30101;32.778;34.994;2022-07-25T14:01:18;96666.41;;;28.90;61.17
44385;BME280;30101;32.778;34.994;2022-07-25T14:06:21;96654.44;;;28.82;61.57
44385;BME280;30101;32.778;34.994;2022-07-25T14:11:25;96645.69;;;28.76;61.71
44385;BME280;30101;32.778;34.994;2022-07-25T14:16:32;96652.59;;;28.70;62.28
44385;BME280;30101;32.778;34.994;2022-07-25T14:21:36;96649.16;;;28.73;62.22
44385;BME280;30101;32.778;34.994;2022-07-25T14:26:40;96654.53;;;28.70;61.97
44385;BME280;30101;32.778;34.994;2022-07-25T14:31:44;96658.63;;;28.60;62.22
44385;BME280;30101;32.778;34.994;2022-07-25T14:36:47;96661.63;;;28.55;62.47
44385;BME280;30101;32.778;34.994;2022-07-25T14:41:51;96661.63;;;28.55;62.74
44385;BME280;30101;32.778;34.994;2022-07-25T14:46:55;96659.16;;;28.50;62.63
44385;BME280;30101;32.778;34.994;2022-07-25T14:52:00;96654.34;;;28.47;62.35
44385;BME280;30101;32.778;34.994;2022-07-25T14:57:04;96668.44;;;28.45;62.88
44385;BME280;30101;32.778;34.994;2022-07-25T15:02:07;96662.56;;;28.31;62.88
44385;BME280;30101;32.778;34.994;2022-07-25T15:07:11;96667.84;;;28.24;63.07
44385;BME280;30101;32.778;34.994;2022-07-25T15:12:15;96670.66;;;28.12;63.41
44385;BME280;30101;32.778;34.994;2022-07-25T15:17:19;96675.84;;;28.01;63.71
44385;BME280;30101;32.778;34.994;2022-07-25T15:22:22;96671.88;;;27.99;63.84
44385;BME280;30101;32.778;34.994;2022-07-25T15:27:25;96677.69;;;27.97;63.55
44385;BME280;30101;32.778;34.994;2022-07-25T15:32:29;96680.22;;;27.90;63.58
44385;BME280;30101;32.778;34.994;2022-07-25T15:37:33;96671.72;;;27.79;63.67
44385;BME280;30101;32.778;34.994;2022-07-25T15:42:37;96680.06;;;27.71;63.73
44385;BME280;30101;32.778;34.994;2022-07-25T15:47:41;96685.44;;;27.67;64.14
44385;BME280;30101;32.778;34.994;2022-07-25T15:52:50;96681.13;;;27.54;64.43
44385;BME280;30101;32.778;34.994;2022-07-25T15:57:54;96686.63;;;27.41;64.84
44385;BME280;30101;32.778;34.994;2022-07-25T16:02:57;96684.47;;;27.35;65.19
44385;BME280;30101;32.778;34.994;2022-07-25T16:08:01;96684.72;;;27.30;65.40
44385;BME280;30101;32.778;34.994;2022-07-25T16:13:05;96689.63;;;27.24;65.49
44385;BME280;30101;32.778;34.994;2022-07-25T16:18:12;96683.13;;;27.17;65.66
44385;BME280;30101;32.778;34.994;2022-07-25T16:23:16;96703.22;;;27.08;65.91
44385;BME280;30101;32.778;34.994;2022-07-25T16:28:19;96700.13;;;26.98;65.96
44385;BME280;30101;32.778;34.994;2022-07-25T16:33:23;96698.97;;;26.86;66.29
44385;BME280;30101;32.778;34.994;2022-07-25T16:38:27;96702.72;;;26.82;66.71
44385;BME280;30101;32.778;34.994;2022-07-25T16:43:31;96703.97;;;26.72;66.69
44385;BME280;30101;32.778;34.994;2022-07-25T16:48:35;96712.41;;;26.67;67.09
44385;BME280;30101;32.778;34.994;2022-07-25T16:53:39;96711.38;;;26.59;67.23
44385;BME280;30101;32.778;34.994;2022-07-25T16:58:43;96717.84;;;26.55;67.57
44385;BME280;30101;32.778;34.994;2022-07-25T17:03:47;96723.19;;;26.51;67.84
44385;BME280;30101;32.778;34.994;2022-07-25T17:08:51;96728.44;;;26.44;67.88
44385;BME280;30101;32.778;34.994;2022-07-25T17:13:56;96732.13;;;26.40;68.27
44385;BME280;30101;32.778;34.994;2022-07-25T17:19:01;96731.22;;;26.35;68.50
44385;BME280;30101;32.778;34.994;2022-07-25T17:24:05;96728.69;;;26.30;68.45
44385;BME280;30101;32.778;34.994;2022-07-25T17:29:08;96741.13;;;26.28;68.80
44385;BME280;30101;32.778;34.994;2022-07-25T17:34:12;96733.59;;;26.25;68.80
44385;BME280;30101;32.778;34.994;2022-07-25T17:39:16;96737.31;;;26.20;69.13
44385;BME280;30101;32.778;34.994;2022-07-25T17:44:20;96736.41;;;26.16;69.34
44385;BME280;30101;32.778;34.994;2022-07-25T17:49:27;96738.22;;;26.12;69.42
44385;BME280;30101;32.778;34.994;2022-07-25T17:54:30;96742.75;;;26.08;69.91
44385;BME280;30101;32.778;34.994;2022-07-25T17:59:34;96737.50;;;26.03;69.71
44385;BME280;30101;32.778;34.994;2022-07-25T18:04:37;96749.88;;;26.00;69.93
44385;BME280;30101;32.778;34.994;2022-07-25T18:09:41;96748.63;;;25.98;70.11
44385;BME280;30101;32.778;34.994;2022-07-25T18:14:46;96752.38;;;25.93;70.29
44385;BME280;30101;32.778;34.994;2022-07-25T18:19:54;96751.75;;;25.88;70.80
44385;BME280;30101;32.778;34.994;2022-07-25T18:24:57;96759.06;;;25.84;70.90
44385;BME280;30101;32.778;34.994;2022-07-25T18:30:03;96763.22;;;25.81;70.83
44385;BME280;30101;32.778;34.994;2022-07-25T18:35:06;96766.66;;;25.78;70.92
44385;BME280;30101;32.778;34.994;2022-07-25T18:40:11;96767.63;;;25.73;71.07
44385;BME280;30101;32.778;34.994;2022-07-25T18:45:15;96768.59;;;25.69;71.45
44385;BME280;30101;32.778;34.994;2022-07-25T18:50:21;96769.41;;;25.69;71.19
44385;BME280;30101;32.778;34.994;2022-07-25T18:55:24;96774.41;;;25.67;71.41
44385;BME280;30101;32.778;34.994;2022-07-25T19:00:28;96785.34;;;25.67;71.80
44385;BME280;30101;32.778;34.994;2022-07-25T19:05:32;96778.63;;;25.65;71.71
44385;BME280;30101;32.778;34.994;2022-07-25T19:10:36;96781.19;;;25.61;71.98
44385;BME280;30101;32.778;34.994;2022-07-25T19:15:40;96778.66;;;25.56;71.99
44385;BME280;30101;32.778;34.994;2022-07-25T19:20:43;96772.25;;;25.52;71.96
44385;BME280;30101;32.778;34.994;2022-07-25T19:25:47;96771.13;;;25.53;71.92
44385;BME280;30101;32.778;34.994;2022-07-25T19:30:51;96765.50;;;25.49;72.20
44385;BME280;30101;32.778;34.994;2022-07-25T19:35:54;96766.97;;;25.47;72.47
44385;BME280;30101;32.778;34.994;2022-07-25T19:40:58;96759.44;;;25.44;72.27
44385;BME280;30101;32.778;34.994;2022-07-25T19:46:01;96757.38;;;25.41;72.64
44385;BME280;30101;32.778;34.994;2022-07-25T19:51:05;96754.94;;;25.39;72.26
44385;BME280;30101;32.778;34.994;2022-07-25T19:56:09;96749.00;;;25.37;72.72
44385;BME280;30101;32.778;34.994;2022-07-25T20:01:17;96750.81;;;25.33;72.58
44385;BME280;30101;32.778;34.994;2022-07-25T20:06:20;96753.41;;;25.29;72.98
44385;BME280;30101;32.778;34.994;2022-07-25T20:11:24;96754.06;;;25.26;72.91
44385;BME280;30101;32.778;34.994;2022-07-25T20:16:29;96750.53;;;25.26;73.31
44385;BME280;30101;32.778;34.994;2022-07-25T20:21:35;96757.91;;;25.25;73.35
44385;BME280;30101;32.778;34.994;2022-07-25T20:26:39;96747.31;;;25.24;73.39
44385;BME280;30101;32.778;34.994;2022-07-25T20:31:44;96750.41;;;25.22;73.66
44385;BME280;30101;32.778;34.994;2022-07-25T20:36:48;96734.97;;;25.18;73.78
44385;BME280;30101;32.778;34.994;2022-07-25T20:41:51;96734.53;;;25.16;74.02
44385;BME280;30101;32.778;34.994;2022-07-25T20:46:55;96737.09;;;25.12;73.96
44385;BME280;30101;32.778;34.994;2022-07-25T20:51:59;96736.63;;;25.10;73.71
44385;BME280;30101;32.778;34.994;2022-07-25T20:57:03;96743.34;;;25.13;73.97
44385;BME280;30101;32.778;34.994;2022-07-25T21:02:06;96745.28;;;25.12;74.01
44385;BME280;30101;32.778;34.994;2022-07-25T21:07:10;96741.41;;;25.13;74.37
44385;BME280;30101;32.778;34.994;2022-07-25T21:12:15;96737.88;;;25.13;74.01
44385;BME280;30101;32.778;34.994;2022-07-25T21:17:18;96735.50;;;25.11;73.97
44385;BME280;30101;32.778;34.994;2022-07-25T21:22:22;96726.34;;;25.07;74.30
44385;BME280;30101;32.778;34.994;2022-07-25T21:27:25;96734.38;;;25.03;74.31
44385;BME280;30101;32.778;34.994;2022-07-25T21:32:29;96726.72;;;24.97;74.42
44385;BME280;30101;32.778;34.994;2022-07-25T21:37:33;96721.09;;;24.93;74.60
44385;BME280;30101;32.778;34.994;2022-07-25T21:42:36;96722.06;;;24.89;74.76
44385;BME280;30101;32.778;34.994;2022-07-25T21:47:41;96725.94;;;24.88;74.81
44385;BME280;30101;32.778;34.994;2022-07-25T21:52:45;96722.41;;;24.87;75.42
44385;BME280;30101;32.778;34.994;2022-07-25T21:57:49;96728.00;;;24.91;75.36
44385;BME280;30101;32.778;34.994;2022-07-25T22:02:53;96725.75;;;24.93;75.49
44385;BME280;30101;32.778;34.994;2022-07-25T22:07:57;96721.41;;;24.92;75.64
44385;BME280;30101;32.778;34.994;2022-07-25T22:13:00;96719.81;;;24.91;75.53
44385;BME280;30101;32.778;34.994;2022-07-25T22:18:04;96717.28;;;24.86;75.79
44385;BME280;30101;32.778;34.994;2022-07-25T22:23:08;96728.03;;;24.82;75.89
44385;BME280;30101;32.778;34.994;2022-07-25T22:28:12;96728.03;;;24.82;75.62
44385;BME280;30101;32.778;34.994;2022-07-25T22:33:16;96723.88;;;24.85;76.02
44385;BME280;30101;32.778;34.994;2022-07-25T22:38:19;96726.25;;;24.86;75.73
44385;BME280;30101;32.778;34.994;2022-07-25T22:43:24;96729.31;;;24.85;76.02
44385;BME280;30101;32.778;34.994;2022-07-25T22:48:48;96729.97;;;24.82;75.89
44385;BME280;30101;32.778;34.994;2022-07-25T22:53:51;96725.16;;;24.79;76.25
44385;BME280;30101;32.778;34.994;2022-07-25T22:58:56;96716.53;;;24.77;76.56
44385;BME280;30101;32.778;34.994;2022-07-25T23:03:59;96715.56;;;24.72;76.62
44385;BME280;30101;32.778;34.994;2022-07-25T23:09:03;96713.47;;;24.69;76.61
44385;BME280;30101;32.778;34.994;2022-07-25T23:14:07;96718.47;;;24.67;76.47
44385;BME280;30101;32.778;34.994;2022-07-25T23:19:12;96721.19;;;24.67;77.09
44385;BME280;30101;32.778;34.994;2022-07-25T23:24:15;96716.53;;;24.68;77.11
44385;BME280;30101;32.778;34.994;2022-07-25T23:29:19;96723.28;;;24.70;77.00
44385;BME280;30101;32.778;34.994;2022-07-25T23:34:22;96717.16;;;24.73;76.82
44385;BME280;30101;32.778;34.994;2022-07-25T23:39:26;96718.13;;;24.78;77.21
44385;BME280;30101;32.778;34.994;2022-07-25T23:44:30;96711.53;;;24.79;77.03
44385;BME280;30101;32.778;34.994;2022-07-25T23:49:33;96718.13;;;24.78;77.27
44385;BME280;30101;32.778;34.994;2022-07-25T23:54:37;96702.72;;;24.73;76.86
44385;BME280;30101;32.778;34.994;2022-07-25T23:59:41;96710.91;;;24.73;77.43
